sensor_id;sensor_type;location;lat;lon;timestamp;temperature;humidity
53498;DHT22;39382;47.168;16.008;2023-12-04T00:01:49;-5.40;99.90
53498;DHT22;39382;47.168;16.008;2023-12-04T00:04:15;-5.40;99.90
53498;DHT22;39382;47.168;16.008;2023-12-04T00:06:43;-5.40;99.90
53498;DHT22;39382;47.168;16.008;2023-12-04T00:09:09;-5.50;99.90
53498;DHT22;39382;47.168;16.008;2023-12-04T00:11:34;-5.60;99.90
53498;DHT22;39382;47.168;16.008;2023-12-04T00:14:00;-5.70;99.90
53498;DHT22;39382;47.168;16.008;2023-12-04T00:16:26;-5.70;99.90
53498;DHT22;39382;47.168;16.008;2023-12-04T00:18:52;-5.70;99.90
53498;DHT22;39382;47.168;16.008;2023-12-04T00:21:17;-5.70;99.90
53498;DHT22;39382;47.168;16.008;2023-12-04T00:23:43;-5.70;99.90
53498;DHT22;39382;47.168;16.008;2023-12-04T00:26:09;-5.70;99.90
53498;DHT22;39382;47.168;16.008;2023-12-04T00:28:37;-5.70;99.90
53498;DHT22;39382;47.168;16.008;2023-12-04T00:31:03;-5.70;99.90
53498;DHT22;39382;47.168;16.008;2023-12-04T00:33:29;-5.70;99.90
53498;DHT22;39382;47.168;16.008;2023-12-04T00:35:54;-5.80;99.90
53498;DHT22;39382;47.168;16.008;2023-12-04T00:38:20;-5.80;99.90
53498;DHT22;39382;47.168;16.008;2023-12-04T00:40:46;-5.80;99.90
53498;DHT22;39382;47.168;16.008;2023-12-04T00:43:11;-5.80;99.90
53498;DHT22;39382;47.168;16.008;2023-12-04T00:45:37;-5.90;99.90
53498;DHT22;39382;47.168;16.008;2023-12-04T00:48:03;-5.90;99.90
53498;DHT22;39382;47.168;16.008;2023-12-04T00:50:28;-6.00;99.90
53498;DHT22;39382;47.168;16.008;2023-12-04T00:52:54;-6.10;99.90
53498;DHT22;39382;47.168;16.008;2023-12-04T00:55:20;-6.20;99.90
53498;DHT22;39382;47.168;16.008;2023-12-04T00:57:46;-6.20;99.90
53498;DHT22;39382;47.168;16.008;2023-12-04T01:00:12;-6.30;99.90
53498;DHT22;39382;47.168;16.008;2023-12-04T01:02:38;-6.30;99.90
53498;DHT22;39382;47.168;16.008;2023-12-04T01:05:03;-6.20;99.90
53498;DHT22;39382;47.168;16.008;2023-12-04T01:07:29;-6.20;99.90
53498;DHT22;39382;47.168;16.008;2023-12-04T01:09:55;-6.10;99.90
53498;DHT22;39382;47.168;16.008;2023-12-04T01:12:20;-5.70;99.90
53498;DHT22;39382;47.168;16.008;2023-12-04T01:14:47;-6.10;99.90
53498;DHT22;39382;47.168;16.008;2023-12-04T01:17:12;-6.10;99.90
53498;DHT22;39382;47.168;16.008;2023-12-04T01:19:38;-6.10;99.90
53498;DHT22;39382;47.168;16.008;2023-12-04T01:22:04;-6.10;99.90
53498;DHT22;39382;47.168;16.008;2023-12-04T01:24:30;-6.10;99.90
53498;DHT22;39382;47.168;16.008;2023-12-04T01:26:56;-6.00;99.90
53498;DHT22;39382;47.168;16.008;2023-12-04T01:29:22;-6.00;99.90
53498;DHT22;39382;47.168;16.008;2023-12-04T01:31:47;-6.10;99.90
53498;DHT22;39382;47.168;16.008;2023-12-04T01:34:13;-6.10;99.90
53498;DHT22;39382;47.168;16.008;2023-12-04T01:36:42;-6.10;99.90
53498;DHT22;39382;47.168;16.008;2023-12-04T01:39:07;-6.10;99.90
53498;DHT22;39382;47.168;16.008;2023-12-04T01:41:33;-6.20;99.90
53498;DHT22;39382;47.168;16.008;2023-12-04T01:43:59;-6.20;99.90
53498;DHT22;39382;47.168;16.008;2023-12-04T01:46:25;-6.30;99.90
53498;DHT22;39382;47.168;16.008;2023-12-04T01:48:51;-6.30;99.90
53498;DHT22;39382;47.168;16.008;2023-12-04T01:51:19;-6.30;99.90
53498;DHT22;39382;47.168;16.008;2023-12-04T01:53:45;-6.30;99.90
53498;DHT22;39382;47.168;16.008;2023-12-04T01:56:12;-6.40;99.90
53498;DHT22;39382;47.168;16.008;2023-12-04T01:58:38;-6.40;99.90
53498;DHT22;39382;47.168;16.008;2023-12-04T02:01:05;-6.50;99.90
53498;DHT22;39382;47.168;16.008;2023-12-04T02:03:31;-6.50;99.90
53498;DHT22;39382;47.168;16.008;2023-12-04T02:05:59;-6.40;99.90
53498;DHT22;39382;47.168;16.008;2023-12-04T02:08:26;-6.40;99.90
53498;DHT22;39382;47.168;16.008;2023-12-04T02:10:52;-6.50;99.90
53498;DHT22;39382;47.168;16.008;2023-12-04T02:13:18;-6.40;99.90
53498;DHT22;39382;47.168;16.008;2023-12-04T02:15:45;-6.50;99.90
53498;DHT22;39382;47.168;16.008;2023-12-04T02:18:11;-6.50;99.90
53498;DHT22;39382;47.168;16.008;2023-12-04T02:20:37;-6.60;99.90
53498;DHT22;39382;47.168;16.008;2023-12-04T02:23:03;-6.50;99.90
53498;DHT22;39382;47.168;16.008;2023-12-04T02:25:29;-6.50;99.90
53498;DHT22;39382;47.168;16.008;2023-12-04T02:27:58;-6.60;99.90
53498;DHT22;39382;47.168;16.008;2023-12-04T02:30:26;-6.70;99.90
53498;DHT22;39382;47.168;16.008;2023-12-04T02:32:54;-6.60;99.90
53498;DHT22;39382;47.168;16.008;2023-12-04T02:35:26;-6.60;99.90
53498;DHT22;39382;47.168;16.008;2023-12-04T02:37:53;-6.60;99.90
53498;DHT22;39382;47.168;16.008;2023-12-04T02:40:19;-6.60;99.90
53498;DHT22;39382;47.168;16.008;2023-12-04T02:42:45;-6.60;99.90
53498;DHT22;39382;47.168;16.008;2023-12-04T02:45:11;-6.70;99.90
53498;DHT22;39382;47.168;16.008;2023-12-04T02:47:36;-6.80;99.90
53498;DHT22;39382;47.168;16.008;2023-12-04T02:50:02;-6.80;99.90
53498;DHT22;39382;47.168;16.008;2023-12-04T02:52:28;-6.70;99.90
53498;DHT22;39382;47.168;16.008;2023-12-04T02:54:53;-6.70;99.90
53498;DHT22;39382;47.168;16.008;2023-12-04T02:57:19;-6.70;99.90
53498;DHT22;39382;47.168;16.008;2023-12-04T02:59:45;-6.80;99.90
53498;DHT22;39382;47.168;16.008;2023-12-04T03:02:11;-6.80;99.90
53498;DHT22;39382;47.168;16.008;2023-12-04T03:04:36;-6.80;99.90
53498;DHT22;39382;47.168;16.008;2023-12-04T03:07:02;-6.70;99.90
53498;DHT22;39382;47.168;16.008;2023-12-04T03:09:28;-6.80;99.90
53498;DHT22;39382;47.168;16.008;2023-12-04T03:11:53;-6.90;99.90
53498;DHT22;39382;47.168;16.008;2023-12-04T03:14:19;-6.90;99.90
53498;DHT22;39382;47.168;16.008;2023-12-04T03:16:45;-6.80;99.90
53498;DHT22;39382;47.168;16.008;2023-12-04T03:19:10;-6.80;99.90
53498;DHT22;39382;47.168;16.008;2023-12-04T03:21:36;-6.90;99.90
53498;DHT22;39382;47.168;16.008;2023-12-04T03:24:02;-6.90;99.90
53498;DHT22;39382;47.168;16.008;2023-12-04T03:26:27;-7.00;99.90
53498;DHT22;39382;47.168;16.008;2023-12-04T03:28:54;-7.00;99.90
53498;DHT22;39382;47.168;16.008;2023-12-04T03:31:20;-7.00;99.90
53498;DHT22;39382;47.168;16.008;2023-12-04T03:33:46;-6.90;99.90
53498;DHT22;39382;47.168;16.008;2023-12-04T03:36:12;-6.90;99.90
53498;DHT22;39382;47.168;16.008;2023-12-04T03:38:37;-6.90;99.90
53498;DHT22;39382;47.168;16.008;2023-12-04T03:41:03;-6.90;99.90
53498;DHT22;39382;47.168;16.008;2023-12-04T03:43:29;-6.80;99.90
53498;DHT22;39382;47.168;16.008;2023-12-04T03:45:54;-6.80;99.90
53498;DHT22;39382;47.168;16.008;2023-12-04T03:48:20;-6.80;99.90
53498;DHT22;39382;47.168;16.008;2023-12-04T03:50:46;-6.80;99.90
53498;DHT22;39382;47.168;16.008;2023-12-04T03:53:12;-6.80;99.90
53498;DHT22;39382;47.168;16.008;2023-12-04T03:55:37;-6.80;99.90
53498;DHT22;39382;47.168;16.008;2023-12-04T03:58:03;-6.80;99.90
53498;DHT22;39382;47.168;16.008;2023-12-04T04:00:28;-6.80;99.90
53498;DHT22;39382;47.168;16.008;2023-12-04T04:02:54;-6.80;99.90
53498;DHT22;39382;47.168;16.008;2023-12-04T04:05:20;-6.80;99.90
53498;DHT22;39382;47.168;16.008;2023-12-04T04:07:45;-6.80;99.90
53498;DHT22;39382;47.168;16.008;2023-12-04T04:10:11;-6.80;99.90
53498;DHT22;39382;47.168;16.008;2023-12-04T04:12:37;-6.80;99.90
53498;DHT22;39382;47.168;16.008;2023-12-04T04:15:03;-6.80;99.90
53498;DHT22;39382;47.168;16.008;2023-12-04T04:17:29;-6.80;99.90
53498;DHT22;39382;47.168;16.008;2023-12-04T04:19:55;-6.80;99.90
53498;DHT22;39382;47.168;16.008;2023-12-04T04:22:21;-6.90;99.90
53498;DHT22;39382;47.168;16.008;2023-12-04T04:24:47;-6.90;99.90
53498;DHT22;39382;47.168;16.008;2023-12-04T04:27:13;-6.90;99.90
53498;DHT22;39382;47.168;16.008;2023-12-04T04:29:39;-6.90;99.90
53498;DHT22;39382;47.168;16.008;2023-12-04T04:32:05;-6.90;99.90
53498;DHT22;39382;47.168;16.008;2023-12-04T04:34:31;-6.80;99.90
53498;DHT22;39382;47.168;16.008;2023-12-04T04:36:56;-6.80;99.90
53498;DHT22;39382;47.168;16.008;2023-12-04T04:39:22;-6.90;99.90
53498;DHT22;39382;47.168;16.008;2023-12-04T04:41:48;-6.90;99.90
53498;DHT22;39382;47.168;16.008;2023-12-04T04:44:13;-6.90;99.90
53498;DHT22;39382;47.168;16.008;2023-12-04T04:46:39;-6.90;99.90
53498;DHT22;39382;47.168;16.008;2023-12-04T04:49:04;-6.90;99.90
53498;DHT22;39382;47.168;16.008;2023-12-04T04:51:33;-6.50;99.90
53498;DHT22;39382;47.168;16.008;2023-12-04T04:54:00;-7.10;99.90
53498;DHT22;39382;47.168;16.008;2023-12-04T04:56:26;-7.00;99.90
53498;DHT22;39382;47.168;16.008;2023-12-04T04:58:52;-7.00;99.90
53498;DHT22;39382;47.168;16.008;2023-12-04T05:01:18;-7.10;99.90
53498;DHT22;39382;47.168;16.008;2023-12-04T05:03:43;-7.20;99.90
53498;DHT22;39382;47.168;16.008;2023-12-04T05:06:09;-7.20;99.90
53498;DHT22;39382;47.168;16.008;2023-12-04T05:08:35;-7.20;99.90
53498;DHT22;39382;47.168;16.008;2023-12-04T05:11:00;-7.20;99.90
53498;DHT22;39382;47.168;16.008;2023-12-04T05:13:26;-6.00;99.90
53498;DHT22;39382;47.168;16.008;2023-12-04T05:15:52;-5.30;99.90
53498;DHT22;39382;47.168;16.008;2023-12-04T05:18:17;-6.20;99.90
53498;DHT22;39382;47.168;16.008;2023-12-04T05:20:43;-6.40;99.90
53498;DHT22;39382;47.168;16.008;2023-12-04T05:23:08;-6.60;99.90
53498;DHT22;39382;47.168;16.008;2023-12-04T05:25:34;-6.90;99.90
53498;DHT22;39382;47.168;16.008;2023-12-04T05:28:00;-7.10;99.90
53498;DHT22;39382;47.168;16.008;2023-12-04T05:30:25;-7.20;99.90
53498;DHT22;39382;47.168;16.008;2023-12-04T05:32:51;-7.20;99.90
53498;DHT22;39382;47.168;16.008;2023-12-04T05:35:17;-7.20;99.90
53498;DHT22;39382;47.168;16.008;2023-12-04T05:37:43;-7.40;99.90
53498;DHT22;39382;47.168;16.008;2023-12-04T05:40:09;-7.50;99.90
53498;DHT22;39382;47.168;16.008;2023-12-04T05:42:36;-7.50;99.90
53498;DHT22;39382;47.168;16.008;2023-12-04T05:45:02;-7.60;99.90
53498;DHT22;39382;47.168;16.008;2023-12-04T05:47:28;-7.60;99.90
53498;DHT22;39382;47.168;16.008;2023-12-04T05:49:53;-7.60;99.90
53498;DHT22;39382;47.168;16.008;2023-12-04T05:52:19;-7.60;99.90
53498;DHT22;39382;47.168;16.008;2023-12-04T05:54:45;-7.60;99.90
53498;DHT22;39382;47.168;16.008;2023-12-04T05:57:11;-7.60;99.90
53498;DHT22;39382;47.168;16.008;2023-12-04T05:59:36;-7.50;99.90
53498;DHT22;39382;47.168;16.008;2023-12-04T06:02:02;-7.50;99.90
53498;DHT22;39382;47.168;16.008;2023-12-04T06:04:28;-7.60;99.90
53498;DHT22;39382;47.168;16.008;2023-12-04T06:06:53;-7.60;99.90
53498;DHT22;39382;47.168;16.008;2023-12-04T06:09:19;-7.70;99.90
53498;DHT22;39382;47.168;16.008;2023-12-04T06:11:45;-7.60;99.90
53498;DHT22;39382;47.168;16.008;2023-12-04T06:14:10;-7.60;99.90
53498;DHT22;39382;47.168;16.008;2023-12-04T06:16:37;-7.60;99.90
53498;DHT22;39382;47.168;16.008;2023-12-04T06:19:02;-7.60;99.90
53498;DHT22;39382;47.168;16.008;2023-12-04T06:21:30;-7.60;99.90
53498;DHT22;39382;47.168;16.008;2023-12-04T06:23:56;-7.60;99.90
53498;DHT22;39382;47.168;16.008;2023-12-04T06:26:22;-7.50;99.90
53498;DHT22;39382;47.168;16.008;2023-12-04T06:28:48;-7.50;99.90
53498;DHT22;39382;47.168;16.008;2023-12-04T06:31:14;-7.50;99.90
53498;DHT22;39382;47.168;16.008;2023-12-04T06:33:40;-2.10;99.90
53498;DHT22;39382;47.168;16.008;2023-12-04T06:36:06;-3.50;99.90
53498;DHT22;39382;47.168;16.008;2023-12-04T06:38:33;-4.50;99.90
53498;DHT22;39382;47.168;16.008;2023-12-04T06:41:01;-5.20;99.90
53498;DHT22;39382;47.168;16.008;2023-12-04T06:43:26;-5.70;99.90
53498;DHT22;39382;47.168;16.008;2023-12-04T06:45:53;-6.10;99.90
53498;DHT22;39382;47.168;16.008;2023-12-04T06:48:22;-6.50;99.90
53498;DHT22;39382;47.168;16.008;2023-12-04T06:50:48;-6.70;99.90
53498;DHT22;39382;47.168;16.008;2023-12-04T06:53:14;-5.50;99.90
53498;DHT22;39382;47.168;16.008;2023-12-04T06:55:39;-3.80;99.90
53498;DHT22;39382;47.168;16.008;2023-12-04T06:58:05;-4.90;99.90
53498;DHT22;39382;47.168;16.008;2023-12-04T07:00:31;-5.50;99.90
53498;DHT22;39382;47.168;16.008;2023-12-04T07:02:56;-5.90;99.90
53498;DHT22;39382;47.168;16.008;2023-12-04T07:05:22;-6.10;99.90
53498;DHT22;39382;47.168;16.008;2023-12-04T07:07:48;-6.30;99.90
53498;DHT22;39382;47.168;16.008;2023-12-04T07:10:14;-6.40;99.90
53498;DHT22;39382;47.168;16.008;2023-12-04T07:12:43;-6.50;99.90
53498;DHT22;39382;47.168;16.008;2023-12-04T07:15:10;-6.60;99.90
53498;DHT22;39382;47.168;16.008;2023-12-04T07:17:37;-6.50;99.90
53498;DHT22;39382;47.168;16.008;2023-12-04T07:20:03;-6.50;99.90
53498;DHT22;39382;47.168;16.008;2023-12-04T07:22:32;-6.50;99.90
53498;DHT22;39382;47.168;16.008;2023-12-04T07:24:58;-6.40;99.90
53498;DHT22;39382;47.168;16.008;2023-12-04T07:27:23;-6.40;99.90
53498;DHT22;39382;47.168;16.008;2023-12-04T07:29:49;-6.40;99.90
53498;DHT22;39382;47.168;16.008;2023-12-04T07:32:15;-5.60;99.90
53498;DHT22;39382;47.168;16.008;2023-12-04T07:34:40;-6.30;99.90
53498;DHT22;39382;47.168;16.008;2023-12-04T07:37:06;-6.30;99.90
53498;DHT22;39382;47.168;16.008;2023-12-04T07:39:32;-6.30;99.90
53498;DHT22;39382;47.168;16.008;2023-12-04T07:41:58;-6.10;99.90
53498;DHT22;39382;47.168;16.008;2023-12-04T07:44:23;-6.10;99.90
53498;DHT22;39382;47.168;16.008;2023-12-04T07:46:49;-6.00;99.90
53498;DHT22;39382;47.168;16.008;2023-12-04T07:49:15;-6.00;99.90
53498;DHT22;39382;47.168;16.008;2023-12-04T07:51:40;-6.10;99.90
53498;DHT22;39382;47.168;16.008;2023-12-04T07:54:06;-5.90;99.90
53498;DHT22;39382;47.168;16.008;2023-12-04T07:56:32;-5.80;99.90
53498;DHT22;39382;47.168;16.008;2023-12-04T07:58:57;-5.70;99.90
53498;DHT22;39382;47.168;16.008;2023-12-04T08:01:23;-5.60;99.90
53498;DHT22;39382;47.168;16.008;2023-12-04T08:03:49;-5.60;99.90
53498;DHT22;39382;47.168;16.008;2023-12-04T08:06:15;-5.50;99.90
53498;DHT22;39382;47.168;16.008;2023-12-04T08:08:43;-5.50;99.90
53498;DHT22;39382;47.168;16.008;2023-12-04T08:11:12;-5.50;99.90
53498;DHT22;39382;47.168;16.008;2023-12-04T08:13:38;-5.40;99.90
53498;DHT22;39382;47.168;16.008;2023-12-04T08:16:05;-5.30;99.90
53498;DHT22;39382;47.168;16.008;2023-12-04T08:18:30;-5.20;99.90
53498;DHT22;39382;47.168;16.008;2023-12-04T08:20:59;-5.20;99.90
53498;DHT22;39382;47.168;16.008;2023-12-04T08:23:25;-5.10;99.90
53498;DHT22;39382;47.168;16.008;2023-12-04T08:25:50;-5.10;99.90
53498;DHT22;39382;47.168;16.008;2023-12-04T08:28:16;-5.00;99.90
53498;DHT22;39382;47.168;16.008;2023-12-04T08:30:42;-4.90;99.90
53498;DHT22;39382;47.168;16.008;2023-12-04T08:33:07;-4.80;99.90
53498;DHT22;39382;47.168;16.008;2023-12-04T08:35:33;-4.70;99.90
53498;DHT22;39382;47.168;16.008;2023-12-04T08:37:58;-4.60;99.90
53498;DHT22;39382;47.168;16.008;2023-12-04T08:40:24;-4.60;99.90
53498;DHT22;39382;47.168;16.008;2023-12-04T08:42:50;-4.50;99.90
53498;DHT22;39382;47.168;16.008;2023-12-04T08:45:15;-4.50;99.90
53498;DHT22;39382;47.168;16.008;2023-12-04T08:47:41;-4.40;99.90
53498;DHT22;39382;47.168;16.008;2023-12-04T08:50:07;-4.40;99.90
53498;DHT22;39382;47.168;16.008;2023-12-04T08:52:32;-4.40;99.90
53498;DHT22;39382;47.168;16.008;2023-12-04T08:54:58;-4.20;99.90
53498;DHT22;39382;47.168;16.008;2023-12-04T08:57:24;-4.20;99.90
53498;DHT22;39382;47.168;16.008;2023-12-04T08:59:50;-4.10;99.90
53498;DHT22;39382;47.168;16.008;2023-12-04T09:02:15;-4.00;99.90
53498;DHT22;39382;47.168;16.008;2023-12-04T09:04:41;-3.90;99.90
53498;DHT22;39382;47.168;16.008;2023-12-04T09:07:06;-3.90;99.90
53498;DHT22;39382;47.168;16.008;2023-12-04T09:09:32;-3.80;99.90
53498;DHT22;39382;47.168;16.008;2023-12-04T09:11:58;-3.70;99.90
53498;DHT22;39382;47.168;16.008;2023-12-04T09:14:23;-3.50;99.90
53498;DHT22;39382;47.168;16.008;2023-12-04T09:16:49;-3.40;99.90
53498;DHT22;39382;47.168;16.008;2023-12-04T09:19:15;-3.30;99.90
53498;DHT22;39382;47.168;16.008;2023-12-04T09:21:40;-3.30;99.90
53498;DHT22;39382;47.168;16.008;2023-12-04T09:24:06;-3.20;99.90
53498;DHT22;39382;47.168;16.008;2023-12-04T09:26:32;-3.10;99.90
53498;DHT22;39382;47.168;16.008;2023-12-04T09:28:57;-2.90;99.90
53498;DHT22;39382;47.168;16.008;2023-12-04T09:31:23;-2.80;99.90
53498;DHT22;39382;47.168;16.008;2023-12-04T09:33:48;-2.70;99.90
53498;DHT22;39382;47.168;16.008;2023-12-04T09:36:14;-2.50;99.90
53498;DHT22;39382;47.168;16.008;2023-12-04T09:38:40;-2.40;99.90
53498;DHT22;39382;47.168;16.008;2023-12-04T09:41:06;-2.20;99.90
53498;DHT22;39382;47.168;16.008;2023-12-04T09:43:34;-2.10;99.90
53498;DHT22;39382;47.168;16.008;2023-12-04T09:46:01;-2.00;99.90
53498;DHT22;39382;47.168;16.008;2023-12-04T09:48:27;-1.90;99.90
53498;DHT22;39382;47.168;16.008;2023-12-04T09:50:55;-1.80;99.90
53498;DHT22;39382;47.168;16.008;2023-12-04T09:53:21;-1.70;99.90
53498;DHT22;39382;47.168;16.008;2023-12-04T09:55:49;-1.70;99.90
53498;DHT22;39382;47.168;16.008;2023-12-04T09:58:15;-1.70;99.90
53498;DHT22;39382;47.168;16.008;2023-12-04T10:00:43;-1.50;99.90
53498;DHT22;39382;47.168;16.008;2023-12-04T10:03:09;-1.40;99.90
53498;DHT22;39382;47.168;16.008;2023-12-04T10:05:35;-1.40;99.90
53498;DHT22;39382;47.168;16.008;2023-12-04T10:08:00;-1.20;99.90
53498;DHT22;39382;47.168;16.008;2023-12-04T10:10:26;-1.30;99.90
53498;DHT22;39382;47.168;16.008;2023-12-04T10:12:52;-1.20;99.90
53498;DHT22;39382;47.168;16.008;2023-12-04T10:15:17;-1.20;99.90
53498;DHT22;39382;47.168;16.008;2023-12-04T10:17:43;-1.10;99.90
53498;DHT22;39382;47.168;16.008;2023-12-04T10:20:13;-1.10;99.90
53498;DHT22;39382;47.168;16.008;2023-12-04T10:23:00;-0.90;99.90
53498;DHT22;39382;47.168;16.008;2023-12-04T10:25:29;-0.70;99.90
53498;DHT22;39382;47.168;16.008;2023-12-04T10:28:10;-0.40;99.90
53498;DHT22;39382;47.168;16.008;2023-12-04T10:30:36;-0.30;99.90
53498;DHT22;39382;47.168;16.008;2023-12-04T10:33:04;-0.10;99.90
53498;DHT22;39382;47.168;16.008;2023-12-04T10:35:35;0.00;99.90
53498;DHT22;39382;47.168;16.008;2023-12-04T10:38:16;0.00;99.90
53498;DHT22;39382;47.168;16.008;2023-12-04T10:43:36;0.30;99.90
53498;DHT22;39382;47.168;16.008;2023-12-04T10:46:11;0.30;99.90
53498;DHT22;39382;47.168;16.008;2023-12-04T10:48:38;0.40;99.90
53498;DHT22;39382;47.168;16.008;2023-12-04T10:51:04;2.90;99.90
53498;DHT22;39382;47.168;16.008;2023-12-04T10:53:30;0.80;99.90
53498;DHT22;39382;47.168;16.008;2023-12-04T10:55:59;4.40;99.90
53498;DHT22;39382;47.168;16.008;2023-12-04T10:58:26;3.50;99.90
53498;DHT22;39382;47.168;16.008;2023-12-04T11:00:53;2.30;99.90
53498;DHT22;39382;47.168;16.008;2023-12-04T11:03:40;1.30;99.90
53498;DHT22;39382;47.168;16.008;2023-12-04T11:06:11;1.20;99.90
53498;DHT22;39382;47.168;16.008;2023-12-04T11:08:42;1.00;99.90
53498;DHT22;39382;47.168;16.008;2023-12-04T11:11:19;1.00;99.90
53498;DHT22;39382;47.168;16.008;2023-12-04T11:13:54;1.20;99.90
53498;DHT22;39382;47.168;16.008;2023-12-04T11:19:04;1.10;99.90
53498;DHT22;39382;47.168;16.008;2023-12-04T11:21:32;1.30;99.90
53498;DHT22;39382;47.168;16.008;2023-12-04T11:23:58;1.80;99.90
53498;DHT22;39382;47.168;16.008;2023-12-04T11:26:24;1.60;99.90
53498;DHT22;39382;47.168;16.008;2023-12-04T11:28:52;1.50;99.90
53498;DHT22;39382;47.168;16.008;2023-12-04T11:31:17;1.30;99.90
53498;DHT22;39382;47.168;16.008;2023-12-04T11:33:43;1.30;99.90
53498;DHT22;39382;47.168;16.008;2023-12-04T11:36:11;1.20;99.90
53498;DHT22;39382;47.168;16.008;2023-12-04T11:38:48;1.10;99.90
53498;DHT22;39382;47.168;16.008;2023-12-04T11:41:21;1.20;99.90
53498;DHT22;39382;47.168;16.008;2023-12-04T11:43:47;0.90;99.90
53498;DHT22;39382;47.168;16.008;2023-12-04T11:46:16;0.90;99.90
53498;DHT22;39382;47.168;16.008;2023-12-04T11:48:47;1.00;99.90
53498;DHT22;39382;47.168;16.008;2023-12-04T11:54:18;1.10;99.90
53498;DHT22;39382;47.168;16.008;2023-12-04T11:59:39;1.20;99.90
53498;DHT22;39382;47.168;16.008;2023-12-04T12:02:09;1.30;99.90
53498;DHT22;39382;47.168;16.008;2023-12-04T12:04:35;1.30;99.90
53498;DHT22;39382;47.168;16.008;2023-12-04T12:07:03;1.30;99.70
53498;DHT22;39382;47.168;16.008;2023-12-04T12:09:31;1.20;99.90
53498;DHT22;39382;47.168;16.008;2023-12-04T12:12:02;1.20;99.90
53498;DHT22;39382;47.168;16.008;2023-12-04T12:14:29;1.10;99.90
53498;DHT22;39382;47.168;16.008;2023-12-04T12:16:55;1.10;99.90
53498;DHT22;39382;47.168;16.008;2023-12-04T12:19:21;1.10;99.90
53498;DHT22;39382;47.168;16.008;2023-12-04T12:21:48;1.00;99.90
53498;DHT22;39382;47.168;16.008;2023-12-04T12:24:14;1.00;99.90
53498;DHT22;39382;47.168;16.008;2023-12-04T12:26:40;0.90;99.90
53498;DHT22;39382;47.168;16.008;2023-12-04T12:29:08;0.90;99.90
53498;DHT22;39382;47.168;16.008;2023-12-04T12:31:34;0.90;99.90
53498;DHT22;39382;47.168;16.008;2023-12-04T12:34:00;1.00;99.90
53498;DHT22;39382;47.168;16.008;2023-12-04T12:36:26;1.30;99.90
53498;DHT22;39382;47.168;16.008;2023-12-04T12:38:51;1.10;99.90
53498;DHT22;39382;47.168;16.008;2023-12-04T12:41:17;1.20;99.90
53498;DHT22;39382;47.168;16.008;2023-12-04T12:43:43;1.10;99.90
53498;DHT22;39382;47.168;16.008;2023-12-04T12:46:10;1.20;99.90
53498;DHT22;39382;47.168;16.008;2023-12-04T12:48:35;1.10;99.90
53498;DHT22;39382;47.168;16.008;2023-12-04T12:51:05;1.10;99.90
53498;DHT22;39382;47.168;16.008;2023-12-04T12:53:34;1.10;99.90
53498;DHT22;39382;47.168;16.008;2023-12-04T12:56:01;1.20;99.90
53498;DHT22;39382;47.168;16.008;2023-12-04T12:58:27;1.30;99.90
53498;DHT22;39382;47.168;16.008;2023-12-04T13:00:54;1.20;99.90
53498;DHT22;39382;47.168;16.008;2023-12-04T13:03:20;1.20;99.90
53498;DHT22;39382;47.168;16.008;2023-12-04T13:05:46;1.40;99.90
53498;DHT22;39382;47.168;16.008;2023-12-04T13:08:12;1.20;99.30
53498;DHT22;39382;47.168;16.008;2023-12-04T13:10:38;2.10;99.90
53498;DHT22;39382;47.168;16.008;2023-12-04T13:13:12;1.20;99.90
53498;DHT22;39382;47.168;16.008;2023-12-04T13:15:38;1.10;99.90
53498;DHT22;39382;47.168;16.008;2023-12-04T13:18:04;2.10;99.90
53498;DHT22;39382;47.168;16.008;2023-12-04T13:20:29;1.20;99.90
53498;DHT22;39382;47.168;16.008;2023-12-04T13:22:55;1.20;99.90
53498;DHT22;39382;47.168;16.008;2023-12-04T13:25:21;1.20;99.90
53498;DHT22;39382;47.168;16.008;2023-12-04T13:27:48;1.00;99.90
53498;DHT22;39382;47.168;16.008;2023-12-04T13:30:14;1.00;99.90
53498;DHT22;39382;47.168;16.008;2023-12-04T13:32:39;1.30;99.90
53498;DHT22;39382;47.168;16.008;2023-12-04T13:35:06;1.10;99.90
53498;DHT22;39382;47.168;16.008;2023-12-04T13:37:33;1.10;99.90
53498;DHT22;39382;47.168;16.008;2023-12-04T13:39:58;1.20;99.90
53498;DHT22;39382;47.168;16.008;2023-12-04T13:42:29;1.20;99.90
53498;DHT22;39382;47.168;16.008;2023-12-04T13:45:13;1.10;99.90
53498;DHT22;39382;47.168;16.008;2023-12-04T13:47:39;0.90;99.90
53498;DHT22;39382;47.168;16.008;2023-12-04T13:50:08;1.30;99.90
53498;DHT22;39382;47.168;16.008;2023-12-04T13:52:36;1.10;99.90
53498;DHT22;39382;47.168;16.008;2023-12-04T13:55:04;1.20;99.90
53498;DHT22;39382;47.168;16.008;2023-12-04T13:57:39;1.10;99.90
53498;DHT22;39382;47.168;16.008;2023-12-04T14:00:26;1.00;99.90
53498;DHT22;39382;47.168;16.008;2023-12-04T14:02:51;0.80;99.90
53498;DHT22;39382;47.168;16.008;2023-12-04T14:05:29;0.60;99.90
53498;DHT22;39382;47.168;16.008;2023-12-04T14:07:55;0.80;99.90
53498;DHT22;39382;47.168;16.008;2023-12-04T14:10:22;0.80;99.90
53498;DHT22;39382;47.168;16.008;2023-12-04T14:12:47;0.80;99.90
53498;DHT22;39382;47.168;16.008;2023-12-04T14:15:13;0.80;99.90
53498;DHT22;39382;47.168;16.008;2023-12-04T14:17:39;0.50;99.90
53498;DHT22;39382;47.168;16.008;2023-12-04T14:20:06;0.50;99.90
53498;DHT22;39382;47.168;16.008;2023-12-04T14:22:40;0.60;99.90
53498;DHT22;39382;47.168;16.008;2023-12-04T14:25:06;0.30;99.90
53498;DHT22;39382;47.168;16.008;2023-12-04T14:27:32;0.50;99.90
53498;DHT22;39382;47.168;16.008;2023-12-04T14:29:58;0.80;99.90
53498;DHT22;39382;47.168;16.008;2023-12-04T14:32:24;0.50;99.90
53498;DHT22;39382;47.168;16.008;2023-12-04T14:34:49;2.10;99.90
53498;DHT22;39382;47.168;16.008;2023-12-04T14:37:15;0.10;99.90
53498;DHT22;39382;47.168;16.008;2023-12-04T14:39:41;2.00;99.90
53498;DHT22;39382;47.168;16.008;2023-12-04T14:42:06;2.00;99.90
53498;DHT22;39382;47.168;16.008;2023-12-04T14:44:32;1.20;99.90
53498;DHT22;39382;47.168;16.008;2023-12-04T14:46:58;0.50;99.90
53498;DHT22;39382;47.168;16.008;2023-12-04T14:49:24;2.20;99.90
53498;DHT22;39382;47.168;16.008;2023-12-04T14:51:50;0.50;99.90
53498;DHT22;39382;47.168;16.008;2023-12-04T14:54:15;2.90;99.90
53498;DHT22;39382;47.168;16.008;2023-12-04T14:56:48;1.90;99.90
53498;DHT22;39382;47.168;16.008;2023-12-04T14:59:32;1.40;99.90
53498;DHT22;39382;47.168;16.008;2023-12-04T15:02:17;1.00;99.90
53498;DHT22;39382;47.168;16.008;2023-12-04T15:05:08;0.60;99.90
53498;DHT22;39382;47.168;16.008;2023-12-04T15:07:34;0.40;99.90
53498;DHT22;39382;47.168;16.008;2023-12-04T15:10:00;0.20;99.90
53498;DHT22;39382;47.168;16.008;2023-12-04T15:12:26;0.10;99.90
53498;DHT22;39382;47.168;16.008;2023-12-04T15:15:14;0.10;99.90
53498;DHT22;39382;47.168;16.008;2023-12-04T15:17:56;0.80;99.90
53498;DHT22;39382;47.168;16.008;2023-12-04T15:20:41;-0.10;99.90
53498;DHT22;39382;47.168;16.008;2023-12-04T15:23:07;0.10;99.90
53498;DHT22;39382;47.168;16.008;2023-12-04T15:25:33;-0.10;99.90
53498;DHT22;39382;47.168;16.008;2023-12-04T15:27:58;0.60;99.90
53498;DHT22;39382;47.168;16.008;2023-12-04T15:30:28;1.00;99.90